Flight Track Log - Related Links

Times and Time Zones

All times are in EDT time to prevent confusion due to time zone crossing. See the SWA1707 flight status page for this flight to view local times or setup timezone preferences in your user account.

Time Position Orientation Groundspeed Altitude Reporting Facility
EDT Latitude Longitude Course Direction KTS MPH feet Rate Location/Type
Tue 06:00:03 PM 36.0500 -86.7333 219° Southwest 212 244 4,400  Level Nashville TRACON
Tue 06:01:09 PM 35.9833 -86.8000 219° Southwest 259 298 8,000 2,976 Climbing Nashville TRACON
Tue 06:02:10 PM 35.9425 -86.8625 231° Southwest 267 307 10,700 2,281 Climbing Memphis Center
Tue 06:03:10 PM 35.8842 -86.9367 226° Southwest 299 344 12,600 2,350 Climbing Memphis Center
Tue 06:04:10 PM 35.8153 -87.0164 223° Southwest 326 375 15,400 2,450 Climbing Memphis Center
Tue 06:05:10 PM 35.7381 -87.0883 217° Southwest 350 403 17,500 2,400 Climbing Memphis Center
Tue 06:06:10 PM 35.6442 -87.1664 214° Southwest 373 429 20,200 2,600 Climbing Memphis Center
Tue 06:07:10 PM 35.5539 -87.2258 208° Southwest 373 429 22,700 1,850 Climbing Memphis Center
Tue 06:08:10 PM 35.4575 -87.2881 208° Southwest 380 437 23,900 1,150 Climbing Memphis Center
Tue 06:09:10 PM 35.3589 -87.3478 206° Southwest 396 456 25,000 600 Climbing Memphis Center
Tue 06:10:10 PM 35.2447 -87.3772 192° South 403 464 25,100 900 Climbing Memphis Center
Tue 06:11:10 PM 35.1267 -87.4094 193° South 415 478 26,800 1,650 Climbing Memphis Center
Tue 06:12:10 PM 35.0156 -87.4717 205° Southwest 436 502 28,400 1,900 Climbing Memphis Center
Tue 06:13:10 PM 34.9083 -87.5286 204° Southwest 447 514 30,600 1,800 Climbing Memphis Center
Tue 06:14:10 PM 34.8072 -87.5850 205° Southwest 422 486 32,000 700 Climbing Memphis Center
Tue 06:15:10 PM 34.7083 -87.6389 204° Southwest 417 480 32,000  Level Memphis Center
Tue 06:16:10 PM 34.6011 -87.6978 204° Southwest 417 480 32,000 250 Level Memphis Center
Tue 06:17:10 PM 34.4919 -87.7592 205° Southwest 417 480 32,500 1,000 Climbing Memphis Center
Tue 06:18:10 PM 34.3844 -87.8128 202° Southwest 423 487 34,000 1,350 Climbing Memphis Center
Tue 06:19:10 PM 34.2811 -87.8661 203° Southwest 417 480 35,200 1,000 Climbing Memphis Center
Tue 06:20:10 PM 34.1800 -87.9192 203° Southwest 411 473 36,000 400 Climbing Memphis Center
Tue 06:21:10 PM 34.0747 -87.9775 205° Southwest 406 467 36,000  Level Memphis Center
Tue 06:22:10 PM 33.9733 -88.0303 203° Southwest 406 467 36,000  Level Memphis Center
Tue 06:23:10 PM 33.8700 -88.0856 204° Southwest 406 467 36,000  Level Memphis Center
Tue 06:24:10 PM 33.7686 -88.1358 202° Southwest 406 467 36,000  Level Memphis Center
Tue 06:25:10 PM 33.6653 -88.1908 204° Southwest 406 467 36,000  Level Memphis Center
Tue 06:26:10 PM 33.5642 -88.2456 204° Southwest 406 467 36,000  Level Memphis Center
Tue 06:27:10 PM 33.4544 -88.3031 204° Southwest 401 461 36,000  Level Memphis Center
Tue 06:28:10 PM 33.3467 -88.3553 202° Southwest 406 467 36,000  Level Memphis Center
Tue 06:29:10 PM 33.2453 -88.4122 205° Southwest 406 467 36,000  Level Memphis Center
Tue 06:30:10 PM 33.1417 -88.4667 204° Southwest 406 467 36,000 -400 Level Memphis Center
Tue 06:31:10 PM 33.0383 -88.5186 203° Southwest 411 473 35,200 -500 Descending Memphis Center
Tue 06:32:10 PM 32.9347 -88.5728 204° Southwest 411 473 35,000 -100 Descending Memphis Center
Tue 06:33:10 PM 32.8311 -88.6292 205° Southwest 411 473 35,000  Level Memphis Center
Tue 06:34:10 PM 32.7678 -88.7317 234° Southwest 384 442 35,000  Level Memphis Center
Tue 06:35:10 PM 32.7064 -88.8339 235° Southwest 384 442 35,000  Level Memphis Center
Tue 06:36:10 PM 32.6428 -88.9386 234° Southwest 389 448 35,000  Level Memphis Center
Tue 06:37:10 PM 32.5794 -89.0433 234° Southwest 394 453 35,000  Level Memphis Center
Tue 06:38:10 PM 32.5136 -89.1525 234° Southwest 399 459 35,000  Level Memphis Center
Tue 06:39:10 PM 32.4500 -89.2544 234° Southwest 399 459 35,000  Level Memphis Center
Tue 06:40:10 PM 32.3775 -89.3511 228° Southwest 399 459 35,000 -400 Level Memphis Center
Tue 06:41:10 PM 32.2567 -89.3722 188° South 387 445 34,200 -900 Descending Memphis Center
Tue 06:42:10 PM 32.1400 -89.3956 190° South 406 467 33,200 -600 Descending Memphis Center
Tue 06:43:10 PM 32.0233 -89.4189 190° South 422 486 33,000 -100 Descending Memphis Center
Tue 06:44:10 PM 31.9067 -89.4422 190° South 427 491 33,000 -65 Level Memphis Center
Tue 06:44:43 PM 31.8489 -89.4528 189° South 428 493 32,900 -2,084 Descending Houston Center
Tue 06:45:45 PM 31.7294 -89.4769 190° South 433 498 29,700 -2,371 Descending Houston Center
Tue 06:46:47 PM 31.6225 -89.5328 204° Southwest 435 501 28,000 -1,355 Descending Houston Center
Tue 06:47:49 PM 31.5264 -89.6250 219° Southwest 419 482 26,900 -1,113 Descending Houston Center
Tue 06:48:51 PM 31.4392 -89.7067 219° Southwest 408 470 25,700 -1,065 Descending Houston Center
Tue 06:49:53 PM 31.3617 -89.7825 220° Southwest 372 428 24,700 -1,056 Descending Houston Center
Tue 06:50:56 PM 31.2672 -89.8706 219° Southwest 364 419 23,500 -1,056 Descending Houston Center
Tue 06:51:58 PM 31.1872 -89.9386 216° Southwest 360 414 22,500 -968 Descending Houston Center
Tue 06:53:00 PM 31.0922 -89.9758 199° South 364 419 21,500 -968 Descending Houston Center
Tue 06:54:02 PM 30.9967 -90.0156 200° South 365 420 20,500 -1,355 Descending Houston Center
Tue 06:55:04 PM 30.9047 -90.0528 199° South 354 407 18,700 -1,929 Descending Houston Center
Tue 06:55:54 PM 30.8214 -90.0889 200° South 337 388 16,900 -2,413 Descending Houston Center
Tue 06:56:36 PM 30.7508 -90.1064 192° South 338 389 15,000 -2,189 Descending Houston Center
Tue 06:57:08 PM 30.7067 -90.1111 185° South 339 390 14,200 -1,967 Descending Houston Center
Tue 06:57:37 PM 30.6594 -90.1175 187° South 327 376 13,000 -2,419 Descending Houston Center
Tue 06:58:10 PM 30.6169 -90.1239 187° South 329 379 11,700 -2,164 Descending Houston Center
Tue 06:58:38 PM 30.5700 -90.1308 187° South 323 372 10,800 -1,333 Descending Houston Center
Tue 06:59:13 PM 30.5294 -90.1356 186° South 321 369 10,300 -1,200 Descending Houston Center
Tue 06:59:38 PM 30.4886 -90.1417 187° South 288 331 9,600 -1,258 Descending Houston Center
Tue 07:00:15 PM 30.4533 -90.1475 188° South 290 334 9,000 -988 Descending Houston Center
Tue 07:01:03 PM 30.3911 -90.1578 188° South 236 272 8,200 -1,200 Descending Houston Center
Tue 07:01:40 PM 30.3536 -90.1617 185° South 220 253 7,300 -1,579 Descending Houston Center
Tue 07:02:19 PM 30.3139 -90.1678 188° South 228 262 6,200 -1,672 Descending Houston Center
Tue 07:02:41 PM 30.2869 -90.1717 187° South 221 254 5,600 -1,452 Descending Houston Center
Tue 07:03:21 PM 30.2531 -90.1758 186° South 224 258 4,700 -1,475 Descending Houston Center
Tue 07:03:42 PM 30.2267 -90.1789 186° South 217 250 4,100 -1,355 Descending Houston Center
Tue 07:04:23 PM 30.1950 -90.1850 189° South 218 251 3,300 -1,273 Descending Houston Center
Tue 07:04:48 PM 30.1664 -90.1933 194° South 200 230 2,700 -968 Descending Houston Center
Tue 07:05:25 PM 30.1450 -90.2006 196° South 201 231 2,300 -590 Descending Houston Center
Tue 07:05:49 PM 30.1231 -90.2072 195° South 151 174 2,100 -290 Descending Houston Center
Tue 07:06:27 PM 30.0961 -90.2161 196° South 166 191 2,000 -327 Descending Houston Center
Tue 07:06:44 PM 30.0836 -90.2208 198° South 152 175 1,800 -750 Descending Houston Center
Tue 07:07:39 PM 30.0506 -90.2317 196° South 139 160 1,100 -778 Descending Houston Center
Tue 07:08:32 PM 30.0225 -90.2403 195° South 142 163 400 -759 Descending Houston Center
Tue 07:08:58 PM 30.0031 -90.2456 193° South 127 146 100 -692 Descending Houston Center
Tue 07:10:00 PM 29.9833 -90.2500 190° South  Level FlightAware Approximate
Tue 07:17:00 PM 29.9934 -90.2580 190° South  Level Estimated
Tue 07:18:00 PM 29.9934 -90.2580 190° South  Level Estimated
Tue 07:19:00 PM 29.9934 -90.2580 190° South  Level Estimated

Login

Don't have an account? Register now (free) for customized features, flight alerts, and more!